sensor_id;sensor_type;location;lat;lon;timestamp;temperature;humidity
3784;DHT22;1907;49.238;9.262;2022-09-17T00:00:43;9.30;99.90
3784;DHT22;1907;49.238;9.262;2022-09-17T00:03:09;9.20;99.90
3784;DHT22;1907;49.238;9.262;2022-09-17T00:05:35;9.20;99.90
3784;DHT22;1907;49.238;9.262;2022-09-17T00:08:05;9.20;99.90
3784;DHT22;1907;49.238;9.262;2022-09-17T00:10:32;9.20;99.90
3784;DHT22;1907;49.238;9.262;2022-09-17T00:13:02;9.20;99.90
3784;DHT22;1907;49.238;9.262;2022-09-17T00:15:28;9.20;99.90
3784;DHT22;1907;49.238;9.262;2022-09-17T00:17:55;9.20;99.90
3784;DHT22;1907;49.238;9.262;2022-09-17T00:20:25;9.20;99.90
3784;DHT22;1907;49.238;9.262;2022-09-17T00:22:52;9.20;99.90
3784;DHT22;1907;49.238;9.262;2022-09-17T00:25:18;9.10;99.90
3784;DHT22;1907;49.238;9.262;2022-09-17T00:27:44;9.10;99.90
3784;DHT22;1907;49.238;9.262;2022-09-17T00:30:10;9.10;99.90
3784;DHT22;1907;49.238;9.262;2022-09-17T00:32:36;9.00;99.90
3784;DHT22;1907;49.238;9.262;2022-09-17T00:35:02;9.00;99.90
3784;DHT22;1907;49.238;9.262;2022-09-17T00:37:28;9.00;99.90
3784;DHT22;1907;49.238;9.262;2022-09-17T00:39:53;9.00;99.90
3784;DHT22;1907;49.238;9.262;2022-09-17T00:42:20;9.00;99.90
3784;DHT22;1907;49.238;9.262;2022-09-17T00:44:48;9.00;99.90
3784;DHT22;1907;49.238;9.262;2022-09-17T00:47:28;8.90;99.90
3784;DHT22;1907;49.238;9.262;2022-09-17T00:50:01;8.90;99.90
3784;DHT22;1907;49.238;9.262;2022-09-17T00:52:37;8.80;99.90
3784;DHT22;1907;49.238;9.262;2022-09-17T00:55:34;8.90;99.90
3784;DHT22;1907;49.238;9.262;2022-09-17T00:58:02;8.80;99.90
3784;DHT22;1907;49.238;9.262;2022-09-17T01:00:30;8.80;99.90
3784;DHT22;1907;49.238;9.262;2022-09-17T01:02:57;8.80;99.90
3784;DHT22;1907;49.238;9.262;2022-09-17T01:05:48;8.80;99.90
3784;DHT22;1907;49.238;9.262;2022-09-17T01:16:54;8.80;99.90
3784;DHT22;1907;49.238;9.262;2022-09-17T01:33:33;8.80;99.90
3784;DHT22;1907;49.238;9.262;2022-09-17T01:46:43;9.30;99.90
3784;DHT22;1907;49.238;9.262;2022-09-17T01:49:11;9.30;99.90
3784;DHT22;1907;49.238;9.262;2022-09-17T01:51:41;9.40;99.90
3784;DHT22;1907;49.238;9.262;2022-09-17T01:54:27;9.50;99.90
3784;DHT22;1907;49.238;9.262;2022-09-17T01:57:04;9.60;99.90
3784;DHT22;1907;49.238;9.262;2022-09-17T02:02:25;9.60;99.90
3784;DHT22;1907;49.238;9.262;2022-09-17T02:05:02;9.70;99.90
3784;DHT22;1907;49.238;9.262;2022-09-17T02:07:31;9.70;99.90
3784;DHT22;1907;49.238;9.262;2022-09-17T02:10:05;9.70;99.90
3784;DHT22;1907;49.238;9.262;2022-09-17T02:12:37;9.70;99.90
3784;DHT22;1907;49.238;9.262;2022-09-17T02:15:08;9.60;99.90
3784;DHT22;1907;49.238;9.262;2022-09-17T02:17:45;9.60;99.90
3784;DHT22;1907;49.238;9.262;2022-09-17T02:20:12;9.50;99.90
3784;DHT22;1907;49.238;9.262;2022-09-17T02:22:54;9.50;99.90
3784;DHT22;1907;49.238;9.262;2022-09-17T02:28:30;9.30;99.90
3784;DHT22;1907;49.238;9.262;2022-09-17T02:30:58;9.30;99.90
3784;DHT22;1907;49.238;9.262;2022-09-17T02:33:24;9.20;99.90
3784;DHT22;1907;49.238;9.262;2022-09-17T02:35:50;9.20;99.90
3784;DHT22;1907;49.238;9.262;2022-09-17T02:38:25;9.10;99.90
3784;DHT22;1907;49.238;9.262;2022-09-17T02:40:58;9.10;99.90
3784;DHT22;1907;49.238;9.262;2022-09-17T02:43:43;9.00;99.90
3784;DHT22;1907;49.238;9.262;2022-09-17T02:49:17;9.00;99.90
3784;DHT22;1907;49.238;9.262;2022-09-17T02:52:21;9.00;99.90
3784;DHT22;1907;49.238;9.262;2022-09-17T03:00:20;8.80;99.90
3784;DHT22;1907;49.238;9.262;2022-09-17T03:02:55;8.80;99.90
3784;DHT22;1907;49.238;9.262;2022-09-17T03:05:22;8.80;99.90
3784;DHT22;1907;49.238;9.262;2022-09-17T03:07:49;8.80;99.90
3784;DHT22;1907;49.238;9.262;2022-09-17T03:10:15;8.70;99.90
3784;DHT22;1907;49.238;9.262;2022-09-17T03:12:41;8.70;99.90
3784;DHT22;1907;49.238;9.262;2022-09-17T03:15:07;8.70;99.90
3784;DHT22;1907;49.238;9.262;2022-09-17T03:17:32;8.70;99.90
3784;DHT22;1907;49.238;9.262;2022-09-17T03:19:58;8.60;99.90
3784;DHT22;1907;49.238;9.262;2022-09-17T03:22:23;8.60;99.90
3784;DHT22;1907;49.238;9.262;2022-09-17T03:24:49;8.50;99.90
3784;DHT22;1907;49.238;9.262;2022-09-17T03:27:15;8.50;99.90
3784;DHT22;1907;49.238;9.262;2022-09-17T03:29:40;8.50;99.90
3784;DHT22;1907;49.238;9.262;2022-09-17T03:32:06;8.50;99.90
3784;DHT22;1907;49.238;9.262;2022-09-17T03:34:32;8.50;99.90
3784;DHT22;1907;49.238;9.262;2022-09-17T03:36:58;8.40;99.90
3784;DHT22;1907;49.238;9.262;2022-09-17T03:39:23;8.50;99.90
3784;DHT22;1907;49.238;9.262;2022-09-17T03:41:49;8.40;99.90
3784;DHT22;1907;49.238;9.262;2022-09-17T03:44:15;8.40;99.90
3784;DHT22;1907;49.238;9.262;2022-09-17T03:46:43;8.40;99.90
3784;DHT22;1907;49.238;9.262;2022-09-17T03:49:08;8.30;99.90
3784;DHT22;1907;49.238;9.262;2022-09-17T03:51:34;8.30;99.90
3784;DHT22;1907;49.238;9.262;2022-09-17T03:53:59;8.30;99.90
3784;DHT22;1907;49.238;9.262;2022-09-17T03:56:26;8.30;99.90
3784;DHT22;1907;49.238;9.262;2022-09-17T03:58:57;8.30;99.90
3784;DHT22;1907;49.238;9.262;2022-09-17T04:01:23;8.40;99.90
3784;DHT22;1907;49.238;9.262;2022-09-17T04:03:48;8.40;99.90
3784;DHT22;1907;49.238;9.262;2022-09-17T04:06:14;8.50;99.90
3784;DHT22;1907;49.238;9.262;2022-09-17T04:08:40;8.50;99.90
3784;DHT22;1907;49.238;9.262;2022-09-17T04:11:05;8.60;99.90
3784;DHT22;1907;49.238;9.262;2022-09-17T04:13:32;8.60;99.90
3784;DHT22;1907;49.238;9.262;2022-09-17T04:15:58;8.70;99.90
3784;DHT22;1907;49.238;9.262;2022-09-17T04:18:23;8.70;99.90
3784;DHT22;1907;49.238;9.262;2022-09-17T04:20:49;8.80;99.90
3784;DHT22;1907;49.238;9.262;2022-09-17T04:23:15;8.80;99.90
3784;DHT22;1907;49.238;9.262;2022-09-17T04:25:40;8.80;99.90
3784;DHT22;1907;49.238;9.262;2022-09-17T04:28:06;8.80;99.90
3784;DHT22;1907;49.238;9.262;2022-09-17T04:30:32;8.80;99.90
3784;DHT22;1907;49.238;9.262;2022-09-17T04:32:57;8.90;99.90
3784;DHT22;1907;49.238;9.262;2022-09-17T04:35:23;8.80;99.90
3784;DHT22;1907;49.238;9.262;2022-09-17T04:37:53;8.90;99.90
3784;DHT22;1907;49.238;9.262;2022-09-17T04:40:20;8.90;99.90
3784;DHT22;1907;49.238;9.262;2022-09-17T04:42:45;8.90;99.90
3784;DHT22;1907;49.238;9.262;2022-09-17T04:45:11;8.90;99.90
3784;DHT22;1907;49.238;9.262;2022-09-17T04:47:40;8.90;99.90
3784;DHT22;1907;49.238;9.262;2022-09-17T04:50:06;9.00;99.90
3784;DHT22;1907;49.238;9.262;2022-09-17T04:52:31;9.00;99.90
3784;DHT22;1907;49.238;9.262;2022-09-17T04:54:57;9.00;99.90
3784;DHT22;1907;49.238;9.262;2022-09-17T04:57:23;9.10;99.90
3784;DHT22;1907;49.238;9.262;2022-09-17T04:59:50;9.10;99.90
3784;DHT22;1907;49.238;9.262;2022-09-17T05:02:16;9.20;99.90
3784;DHT22;1907;49.238;9.262;2022-09-17T05:04:42;9.30;99.90
3784;DHT22;1907;49.238;9.262;2022-09-17T05:07:07;9.30;99.90
3784;DHT22;1907;49.238;9.262;2022-09-17T05:09:33;9.40;99.90
3784;DHT22;1907;49.238;9.262;2022-09-17T05:11:59;9.40;99.90
3784;DHT22;1907;49.238;9.262;2022-09-17T05:14:24;9.40;99.90
3784;DHT22;1907;49.238;9.262;2022-09-17T05:16:50;9.50;99.90
3784;DHT22;1907;49.238;9.262;2022-09-17T05:19:16;9.40;99.90
3784;DHT22;1907;49.238;9.262;2022-09-17T05:21:42;9.40;99.90
3784;DHT22;1907;49.238;9.262;2022-09-17T05:24:07;9.40;99.90
3784;DHT22;1907;49.238;9.262;2022-09-17T05:26:33;9.40;99.90
3784;DHT22;1907;49.238;9.262;2022-09-17T05:28:59;9.40;99.90
3784;DHT22;1907;49.238;9.262;2022-09-17T05:31:24;9.40;99.90
3784;DHT22;1907;49.238;9.262;2022-09-17T05:33:50;9.40;99.90
3784;DHT22;1907;49.238;9.262;2022-09-17T05:36:15;9.40;99.90
3784;DHT22;1907;49.238;9.262;2022-09-17T05:38:41;9.40;99.90
3784;DHT22;1907;49.238;9.262;2022-09-17T05:41:07;9.40;99.90
3784;DHT22;1907;49.238;9.262;2022-09-17T05:43:33;9.40;99.90
3784;DHT22;1907;49.238;9.262;2022-09-17T05:46:03;9.40;99.90
3784;DHT22;1907;49.238;9.262;2022-09-17T05:48:29;9.40;99.90
3784;DHT22;1907;49.238;9.262;2022-09-17T05:50:54;9.40;99.90
3784;DHT22;1907;49.238;9.262;2022-09-17T05:53:20;9.40;99.90
3784;DHT22;1907;49.238;9.262;2022-09-17T05:55:46;9.40;99.90
3784;DHT22;1907;49.238;9.262;2022-09-17T05:58:13;9.40;99.90
3784;DHT22;1907;49.238;9.262;2022-09-17T06:00:40;9.40;99.90
3784;DHT22;1907;49.238;9.262;2022-09-17T06:03:07;9.40;99.90
3784;DHT22;1907;49.238;9.262;2022-09-17T06:05:34;9.40;99.90
3784;DHT22;1907;49.238;9.262;2022-09-17T06:08:00;9.40;99.90
3784;DHT22;1907;49.238;9.262;2022-09-17T06:10:25;9.40;99.90
3784;DHT22;1907;49.238;9.262;2022-09-17T06:12:55;9.40;99.90
3784;DHT22;1907;49.238;9.262;2022-09-17T06:15:22;9.40;99.90
3784;DHT22;1907;49.238;9.262;2022-09-17T06:17:47;9.40;99.90
3784;DHT22;1907;49.238;9.262;2022-09-17T06:20:13;9.30;99.90
3784;DHT22;1907;49.238;9.262;2022-09-17T06:22:40;9.40;99.90
3784;DHT22;1907;49.238;9.262;2022-09-17T06:25:06;9.40;99.90
3784;DHT22;1907;49.238;9.262;2022-09-17T06:27:33;9.40;99.90
3784;DHT22;1907;49.238;9.262;2022-09-17T06:29:59;9.40;99.90
3784;DHT22;1907;49.238;9.262;2022-09-17T06:32:26;9.40;99.90
3784;DHT22;1907;49.238;9.262;2022-09-17T06:34:51;9.50;99.90
3784;DHT22;1907;49.238;9.262;2022-09-17T06:37:18;9.60;99.90
3784;DHT22;1907;49.238;9.262;2022-09-17T06:39:44;9.60;99.90
3784;DHT22;1907;49.238;9.262;2022-09-17T06:42:10;9.60;99.90
3784;DHT22;1907;49.238;9.262;2022-09-17T06:44:36;9.60;99.90
3784;DHT22;1907;49.238;9.262;2022-09-17T06:47:02;9.70;99.90
3784;DHT22;1907;49.238;9.262;2022-09-17T06:49:28;9.70;99.90
3784;DHT22;1907;49.238;9.262;2022-09-17T06:51:55;9.70;99.90
3784;DHT22;1907;49.238;9.262;2022-09-17T06:54:21;9.70;99.90
3784;DHT22;1907;49.238;9.262;2022-09-17T06:56:46;9.80;99.90
3784;DHT22;1907;49.238;9.262;2022-09-17T06:59:12;9.80;99.90
3784;DHT22;1907;49.238;9.262;2022-09-17T07:01:38;9.90;99.90
3784;DHT22;1907;49.238;9.262;2022-09-17T07:04:04;9.90;99.90
3784;DHT22;1907;49.238;9.262;2022-09-17T07:06:29;10.00;99.90
3784;DHT22;1907;49.238;9.262;2022-09-17T07:08:55;10.10;99.90
3784;DHT22;1907;49.238;9.262;2022-09-17T07:11:20;10.10;99.90
3784;DHT22;1907;49.238;9.262;2022-09-17T07:13:46;10.10;99.90
3784;DHT22;1907;49.238;9.262;2022-09-17T07:16:11;10.10;99.90
3784;DHT22;1907;49.238;9.262;2022-09-17T07:18:37;10.10;99.90
3784;DHT22;1907;49.238;9.262;2022-09-17T07:21:05;10.30;99.90
3784;DHT22;1907;49.238;9.262;2022-09-17T07:23:33;10.50;99.90
3784;DHT22;1907;49.238;9.262;2022-09-17T07:26:04;10.70;99.90
3784;DHT22;1907;49.238;9.262;2022-09-17T07:28:30;10.80;99.90
3784;DHT22;1907;49.238;9.262;2022-09-17T07:30:56;10.90;99.90
3784;DHT22;1907;49.238;9.262;2022-09-17T07:33:24;10.90;99.90
3784;DHT22;1907;49.238;9.262;2022-09-17T07:35:59;10.90;99.90
3784;DHT22;1907;49.238;9.262;2022-09-17T07:38:25;10.90;99.90
3784;DHT22;1907;49.238;9.262;2022-09-17T07:43:22;11.00;99.90
3784;DHT22;1907;49.238;9.262;2022-09-17T07:45:48;11.10;99.90
3784;DHT22;1907;49.238;9.262;2022-09-17T07:48:14;11.20;99.90
3784;DHT22;1907;49.238;9.262;2022-09-17T07:50:40;11.50;99.90
3784;DHT22;1907;49.238;9.262;2022-09-17T07:53:05;11.60;99.90
3784;DHT22;1907;49.238;9.262;2022-09-17T07:55:31;11.60;99.90
3784;DHT22;1907;49.238;9.262;2022-09-17T07:57:57;11.60;99.90
3784;DHT22;1907;49.238;9.262;2022-09-17T08:00:22;11.40;99.90
3784;DHT22;1907;49.238;9.262;2022-09-17T08:02:55;11.30;99.90
3784;DHT22;1907;49.238;9.262;2022-09-17T08:05:21;11.20;99.90
3784;DHT22;1907;49.238;9.262;2022-09-17T08:07:51;11.20;99.90
3784;DHT22;1907;49.238;9.262;2022-09-17T08:10:17;11.20;99.90
3784;DHT22;1907;49.238;9.262;2022-09-17T08:12:47;11.30;99.90
3784;DHT22;1907;49.238;9.262;2022-09-17T08:15:13;11.50;99.90
3784;DHT22;1907;49.238;9.262;2022-09-17T08:17:43;11.50;99.90
3784;DHT22;1907;49.238;9.262;2022-09-17T08:20:09;11.60;99.90
3784;DHT22;1907;49.238;9.262;2022-09-17T08:22:34;11.60;99.90
3784;DHT22;1907;49.238;9.262;2022-09-17T08:25:00;11.70;99.90
3784;DHT22;1907;49.238;9.262;2022-09-17T08:27:26;11.70;99.90
3784;DHT22;1907;49.238;9.262;2022-09-17T08:29:51;11.60;99.90
3784;DHT22;1907;49.238;9.262;2022-09-17T08:32:17;11.70;99.90
3784;DHT22;1907;49.238;9.262;2022-09-17T08:34:43;11.90;99.90
3784;DHT22;1907;49.238;9.262;2022-09-17T08:37:08;12.20;99.90
3784;DHT22;1907;49.238;9.262;2022-09-17T08:39:34;12.50;99.90
3784;DHT22;1907;49.238;9.262;2022-09-17T08:42:14;12.60;99.90
3784;DHT22;1907;49.238;9.262;2022-09-17T08:44:45;12.50;99.90
3784;DHT22;1907;49.238;9.262;2022-09-17T08:49:55;12.70;99.90
3784;DHT22;1907;49.238;9.262;2022-09-17T09:00:25;13.70;99.90
3784;DHT22;1907;49.238;9.262;2022-09-17T09:03:20;13.80;99.90
3784;DHT22;1907;49.238;9.262;2022-09-17T09:05:51;13.60;99.90
3784;DHT22;1907;49.238;9.262;2022-09-17T09:11:00;13.20;99.90
3784;DHT22;1907;49.238;9.262;2022-09-17T09:13:33;13.20;99.90
3784;DHT22;1907;49.238;9.262;2022-09-17T09:16:03;13.10;99.90
3784;DHT22;1907;49.238;9.262;2022-09-17T09:18:34;13.40;99.90
3784;DHT22;1907;49.238;9.262;2022-09-17T09:26:21;14.60;99.90
3784;DHT22;1907;49.238;9.262;2022-09-17T09:29:06;15.00;99.90
3784;DHT22;1907;49.238;9.262;2022-09-17T09:31:54;15.40;99.90
3784;DHT22;1907;49.238;9.262;2022-09-17T09:34:22;15.60;99.90
3784;DHT22;1907;49.238;9.262;2022-09-17T09:36:48;15.40;99.90
3784;DHT22;1907;49.238;9.262;2022-09-17T09:39:21;15.30;99.90
3784;DHT22;1907;49.238;9.262;2022-09-17T09:44:38;15.30;99.90
3784;DHT22;1907;49.238;9.262;2022-09-17T09:52:41;15.40;99.90
3784;DHT22;1907;49.238;9.262;2022-09-17T10:00:39;15.90;99.90
3784;DHT22;1907;49.238;9.262;2022-09-17T10:05:36;16.10;99.90
3784;DHT22;1907;49.238;9.262;2022-09-17T10:08:12;15.80;99.90
3784;DHT22;1907;49.238;9.262;2022-09-17T10:13:31;16.20;99.90
3784;DHT22;1907;49.238;9.262;2022-09-17T10:16:19;16.50;99.90
3784;DHT22;1907;49.238;9.262;2022-09-17T10:18:47;16.80;99.90
3784;DHT22;1907;49.238;9.262;2022-09-17T10:21:20;16.60;99.90
3784;DHT22;1907;49.238;9.262;2022-09-17T10:23:48;16.00;99.90
3784;DHT22;1907;49.238;9.262;2022-09-17T10:26:29;15.60;99.90
3784;DHT22;1907;49.238;9.262;2022-09-17T10:28:58;15.20;99.90
3784;DHT22;1907;49.238;9.262;2022-09-17T10:31:24;14.80;99.90
3784;DHT22;1907;49.238;9.262;2022-09-17T10:36:16;14.00;99.90
3784;DHT22;1907;49.238;9.262;2022-09-17T10:38:47;13.90;99.90
3784;DHT22;1907;49.238;9.262;2022-09-17T10:41:18;13.90;99.90
3784;DHT22;1907;49.238;9.262;2022-09-17T10:43:47;13.90;99.90
3784;DHT22;1907;49.238;9.262;2022-09-17T10:46:26;14.30;99.90
3784;DHT22;1907;49.238;9.262;2022-09-17T10:49:07;14.70;99.90
3784;DHT22;1907;49.238;9.262;2022-09-17T10:51:33;14.80;99.90
3784;DHT22;1907;49.238;9.262;2022-09-17T10:56:39;15.20;99.90
3784;DHT22;1907;49.238;9.262;2022-09-17T11:04:20;14.90;99.90
3784;DHT22;1907;49.238;9.262;2022-09-17T11:10:02;15.90;99.90
3784;DHT22;1907;49.238;9.262;2022-09-17T11:15:42;17.00;99.90
3784;DHT22;1907;49.238;9.262;2022-09-17T11:21:19;17.20;99.90
3784;DHT22;1907;49.238;9.262;2022-09-17T11:34:36;19.90;99.90
3784;DHT22;1907;49.238;9.262;2022-09-17T11:43:37;18.20;99.90
3784;DHT22;1907;49.238;9.262;2022-09-17T11:48:46;17.10;99.90
3784;DHT22;1907;49.238;9.262;2022-09-17T11:51:25;17.30;99.90
3784;DHT22;1907;49.238;9.262;2022-09-17T11:53:58;17.50;99.90
3784;DHT22;1907;49.238;9.262;2022-09-17T11:56:40;17.20;99.90
3784;DHT22;1907;49.238;9.262;2022-09-17T12:04:45;15.20;99.90
3784;DHT22;1907;49.238;9.262;2022-09-17T12:15:49;13.70;99.90
3784;DHT22;1907;49.238;9.262;2022-09-17T12:20:58;13.00;99.90
3784;DHT22;1907;49.238;9.262;2022-09-17T12:23:49;12.80;99.90
3784;DHT22;1907;49.238;9.262;2022-09-17T12:37:33;13.60;99.90
3784;DHT22;1907;49.238;9.262;2022-09-17T12:40:12;13.90;99.90
3784;DHT22;1907;49.238;9.262;2022-09-17T12:48:17;14.90;99.90
3784;DHT22;1907;49.238;9.262;2022-09-17T12:50:58;15.20;99.90
3784;DHT22;1907;49.238;9.262;2022-09-17T12:59:11;15.60;99.90
3784;DHT22;1907;49.238;9.262;2022-09-17T13:10:28;14.70;99.90
3784;DHT22;1907;49.238;9.262;2022-09-17T13:21:53;15.40;99.90
3784;DHT22;1907;49.238;9.262;2022-09-17T13:24:00;15.60;99.90
3784;DHT22;1907;49.238;9.262;2022-09-17T13:26:34;15.80;99.90
3784;DHT22;1907;49.238;9.262;2022-09-17T13:29:01;15.90;99.90
3784;DHT22;1907;49.238;9.262;2022-09-17T13:34:27;16.10;99.90
3784;DHT22;1907;49.238;9.262;2022-09-17T13:36:57;16.10;99.90
3784;DHT22;1907;49.238;9.262;2022-09-17T13:39:45;16.20;99.90
3784;DHT22;1907;49.238;9.262;2022-09-17T13:47:34;16.10;99.90
3784;DHT22;1907;49.238;9.262;2022-09-17T13:50:05;15.80;99.90
3784;DHT22;1907;49.238;9.262;2022-09-17T13:52:41;15.50;99.90
3784;DHT22;1907;49.238;9.262;2022-09-17T13:55:31;15.30;99.90
3784;DHT22;1907;49.238;9.262;2022-09-17T13:57:59;15.30;99.90
3784;DHT22;1907;49.238;9.262;2022-09-17T14:00:47;15.20;99.90
3784;DHT22;1907;49.238;9.262;2022-09-17T14:21:55;15.80;99.90
3784;DHT22;1907;49.238;9.262;2022-09-17T14:24:32;15.80;99.90
3784;DHT22;1907;49.238;9.262;2022-09-17T14:32:30;15.60;99.90
3784;DHT22;1907;49.238;9.262;2022-09-17T14:35:01;15.60;99.90
3784;DHT22;1907;49.238;9.262;2022-09-17T14:37:28;15.50;99.90
3784;DHT22;1907;49.238;9.262;2022-09-17T14:39:54;15.60;99.90
3784;DHT22;1907;49.238;9.262;2022-09-17T14:42:28;15.80;99.90
3784;DHT22;1907;49.238;9.262;2022-09-17T14:45:01;16.20;99.90
3784;DHT22;1907;49.238;9.262;2022-09-17T14:47:28;16.60;99.90
3784;DHT22;1907;49.238;9.262;2022-09-17T14:49:54;16.70;99.90
3784;DHT22;1907;49.238;9.262;2022-09-17T14:57:45;16.80;99.90
3784;DHT22;1907;49.238;9.262;2022-09-17T15:00:37;16.70;99.90
3784;DHT22;1907;49.238;9.262;2022-09-17T15:03:03;16.60;99.90
3784;DHT22;1907;49.238;9.262;2022-09-17T15:05:33;16.70;99.90
3784;DHT22;1907;49.238;9.262;2022-09-17T15:10:47;16.40;99.90
3784;DHT22;1907;49.238;9.262;2022-09-17T15:13:17;16.30;99.90
3784;DHT22;1907;49.238;9.262;2022-09-17T15:16:05;16.00;99.90
3784;DHT22;1907;49.238;9.262;2022-09-17T15:18:49;15.80;99.90
3784;DHT22;1907;49.238;9.262;2022-09-17T15:26:56;15.00;99.90
3784;DHT22;1907;49.238;9.262;2022-09-17T15:29:27;14.80;99.90
3784;DHT22;1907;49.238;9.262;2022-09-17T15:31:53;14.60;99.90
3784;DHT22;1907;49.238;9.262;2022-09-17T15:34:19;14.40;99.90
3784;DHT22;1907;49.238;9.262;2022-09-17T15:37:09;14.10;99.90
3784;DHT22;1907;49.238;9.262;2022-09-17T15:39:41;13.90;99.90
3784;DHT22;1907;49.238;9.262;2022-09-17T15:42:18;13.80;99.90
3784;DHT22;1907;49.238;9.262;2022-09-17T15:44:44;13.70;99.90
3784;DHT22;1907;49.238;9.262;2022-09-17T15:50:18;13.80;99.90
3784;DHT22;1907;49.238;9.262;2022-09-17T15:52:45;13.90;99.90
3784;DHT22;1907;49.238;9.262;2022-09-17T15:55:35;14.00;99.90
3784;DHT22;1907;49.238;9.262;2022-09-17T15:58:22;14.10;99.90
3784;DHT22;1907;49.238;9.262;2022-09-17T16:08:45;14.40;99.90
3784;DHT22;1907;49.238;9.262;2022-09-17T16:11:12;14.30;99.90
3784;DHT22;1907;49.238;9.262;2022-09-17T16:13:38;14.10;99.90
3784;DHT22;1907;49.238;9.262;2022-09-17T16:16:04;14.10;99.90
3784;DHT22;1907;49.238;9.262;2022-09-17T16:18:30;14.00;99.90
3784;DHT22;1907;49.238;9.262;2022-09-17T16:20:55;13.80;99.90
3784;DHT22;1907;49.238;9.262;2022-09-17T16:23:21;13.60;99.90
3784;DHT22;1907;49.238;9.262;2022-09-17T16:25:47;13.40;99.90
3784;DHT22;1907;49.238;9.262;2022-09-17T16:28:15;13.20;99.90
3784;DHT22;1907;49.238;9.262;2022-09-17T16:30:46;13.10;99.90
3784;DHT22;1907;49.238;9.262;2022-09-17T16:33:14;13.10;99.90
3784;DHT22;1907;49.238;9.262;2022-09-17T16:35:41;13.00;99.90
3784;DHT22;1907;49.238;9.262;2022-09-17T16:38:08;12.90;99.90
3784;DHT22;1907;49.238;9.262;2022-09-17T16:40:38;12.90;99.90
3784;DHT22;1907;49.238;9.262;2022-09-17T16:43:04;12.80;99.90
3784;DHT22;1907;49.238;9.262;2022-09-17T16:45:30;12.80;99.90
3784;DHT22;1907;49.238;9.262;2022-09-17T16:47:56;12.90;99.90
3784;DHT22;1907;49.238;9.262;2022-09-17T16:50:22;12.90;99.90
3784;DHT22;1907;49.238;9.262;2022-09-17T16:52:48;13.00;99.90
3784;DHT22;1907;49.238;9.262;2022-09-17T16:55:15;13.00;99.90
3784;DHT22;1907;49.238;9.262;2022-09-17T16:57:41;13.10;99.90
3784;DHT22;1907;49.238;9.262;2022-09-17T17:00:10;13.10;99.90
3784;DHT22;1907;49.238;9.262;2022-09-17T17:02:41;13.10;99.90
3784;DHT22;1907;49.238;9.262;2022-09-17T17:05:08;13.00;99.90
3784;DHT22;1907;49.238;9.262;2022-09-17T17:07:35;13.00;99.90
3784;DHT22;1907;49.238;9.262;2022-09-17T17:10:04;13.00;99.90
3784;DHT22;1907;49.238;9.262;2022-09-17T17:12:30;12.90;99.90
3784;DHT22;1907;49.238;9.262;2022-09-17T17:14:56;12.90;99.90
3784;DHT22;1907;49.238;9.262;2022-09-17T17:17:21;12.80;99.90
3784;DHT22;1907;49.238;9.262;2022-09-17T17:19:47;12.80;99.90
3784;DHT22;1907;49.238;9.262;2022-09-17T17:22:13;12.70;99.90
3784;DHT22;1907;49.238;9.262;2022-09-17T17:24:39;12.70;99.90
3784;DHT22;1907;49.238;9.262;2022-09-17T17:27:05;12.70;99.90
3784;DHT22;1907;49.238;9.262;2022-09-17T17:29:30;12.60;99.90
3784;DHT22;1907;49.238;9.262;2022-09-17T17:31:56;12.40;99.90
3784;DHT22;1907;49.238;9.262;2022-09-17T17:34:22;12.10;99.90
3784;DHT22;1907;49.238;9.262;2022-09-17T17:36:50;11.50;99.90
3784;DHT22;1907;49.238;9.262;2022-09-17T17:39:16;11.10;99.90
3784;DHT22;1907;49.238;9.262;2022-09-17T17:41:41;10.80;99.90
3784;DHT22;1907;49.238;9.262;2022-09-17T17:44:08;10.60;99.90
3784;DHT22;1907;49.238;9.262;2022-09-17T17:46:39;10.40;99.90
3784;DHT22;1907;49.238;9.262;2022-09-17T17:49:06;10.40;99.90
3784;DHT22;1907;49.238;9.262;2022-09-17T17:51:32;10.30;99.90
3784;DHT22;1907;49.238;9.262;2022-09-17T17:53:58;10.30;99.90
3784;DHT22;1907;49.238;9.262;2022-09-17T17:56:23;10.20;99.90
3784;DHT22;1907;49.238;9.262;2022-09-17T17:58:53;10.20;99.90
3784;DHT22;1907;49.238;9.262;2022-09-17T18:01:23;10.20;99.90
3784;DHT22;1907;49.238;9.262;2022-09-17T18:03:48;10.20;99.90
3784;DHT22;1907;49.238;9.262;2022-09-17T18:06:14;10.20;99.90
3784;DHT22;1907;49.238;9.262;2022-09-17T18:08:42;10.20;99.90
3784;DHT22;1907;49.238;9.262;2022-09-17T18:11:08;10.20;99.90
3784;DHT22;1907;49.238;9.262;2022-09-17T18:13:36;10.20;99.90
3784;DHT22;1907;49.238;9.262;2022-09-17T18:16:02;10.10;99.90
3784;DHT22;1907;49.238;9.262;2022-09-17T18:18:39;10.10;99.90
3784;DHT22;1907;49.238;9.262;2022-09-17T18:21:08;10.10;99.90
3784;DHT22;1907;49.238;9.262;2022-09-17T18:23:36;10.00;99.90
3784;DHT22;1907;49.238;9.262;2022-09-17T18:26:03;10.00;99.90
3784;DHT22;1907;49.238;9.262;2022-09-17T18:28:30;9.90;99.90
3784;DHT22;1907;49.238;9.262;2022-09-17T18:31:02;9.90;99.90
3784;DHT22;1907;49.238;9.262;2022-09-17T18:33:28;9.80;99.90
3784;DHT22;1907;49.238;9.262;2022-09-17T18:36:02;9.80;99.90
3784;DHT22;1907;49.238;9.262;2022-09-17T18:38:29;9.70;99.90
3784;DHT22;1907;49.238;9.262;2022-09-17T18:40:55;9.70;99.90
3784;DHT22;1907;49.238;9.262;2022-09-17T18:43:21;9.70;99.90
3784;DHT22;1907;49.238;9.262;2022-09-17T18:45:53;9.60;99.90
3784;DHT22;1907;49.238;9.262;2022-09-17T18:48:20;9.60;99.90
3784;DHT22;1907;49.238;9.262;2022-09-17T18:51:05;9.50;99.90
3784;DHT22;1907;49.238;9.262;2022-09-17T18:53:34;9.40;99.90
3784;DHT22;1907;49.238;9.262;2022-09-17T18:58:36;9.30;99.90
3784;DHT22;1907;49.238;9.262;2022-09-17T19:01:06;9.30;99.90
3784;DHT22;1907;49.238;9.262;2022-09-17T19:03:32;9.20;99.90
3784;DHT22;1907;49.238;9.262;2022-09-17T19:05:59;9.20;99.90
3784;DHT22;1907;49.238;9.262;2022-09-17T19:08:25;9.10;99.90
3784;DHT22;1907;49.238;9.262;2022-09-17T19:10:51;9.10;99.90
3784;DHT22;1907;49.238;9.262;2022-09-17T19:13:17;9.10;99.90
3784;DHT22;1907;49.238;9.262;2022-09-17T19:15:43;9.10;99.90
3784;DHT22;1907;49.238;9.262;2022-09-17T19:18:08;9.00;99.90
3784;DHT22;1907;49.238;9.262;2022-09-17T19:20:34;8.90;99.90
3784;DHT22;1907;49.238;9.262;2022-09-17T19:23:03;8.90;99.90
3784;DHT22;1907;49.238;9.262;2022-09-17T19:25:29;8.90;99.90
3784;DHT22;1907;49.238;9.262;2022-09-17T19:27:54;8.90;99.90
3784;DHT22;1907;49.238;9.262;2022-09-17T19:30:21;8.90;99.90
3784;DHT22;1907;49.238;9.262;2022-09-17T19:32:47;8.80;99.90
3784;DHT22;1907;49.238;9.262;2022-09-17T19:35:13;8.80;99.90
3784;DHT22;1907;49.238;9.262;2022-09-17T19:37:39;8.80;99.90
3784;DHT22;1907;49.238;9.262;2022-09-17T19:40:06;8.80;99.90
3784;DHT22;1907;49.238;9.262;2022-09-17T19:42:32;8.80;99.90
3784;DHT22;1907;49.238;9.262;2022-09-17T19:44:57;8.90;99.90
3784;DHT22;1907;49.238;9.262;2022-09-17T19:47:23;8.90;99.90
3784;DHT22;1907;49.238;9.262;2022-09-17T19:49:49;8.90;99.90
3784;DHT22;1907;49.238;9.262;2022-09-17T19:52:17;9.00;99.90
3784;DHT22;1907;49.238;9.262;2022-09-17T19:54:43;9.00;99.90
3784;DHT22;1907;49.238;9.262;2022-09-17T19:57:08;9.10;99.90
3784;DHT22;1907;49.238;9.262;2022-09-17T19:59:34;9.10;99.90
3784;DHT22;1907;49.238;9.262;2022-09-17T20:02:00;9.10;99.90
3784;DHT22;1907;49.238;9.262;2022-09-17T20:04:25;9.20;99.90
3784;DHT22;1907;49.238;9.262;2022-09-17T20:06:51;9.20;99.90
3784;DHT22;1907;49.238;9.262;2022-09-17T20:09:16;9.20;99.90
3784;DHT22;1907;49.238;9.262;2022-09-17T20:11:42;9.20;99.90
3784;DHT22;1907;49.238;9.262;2022-09-17T20:14:08;9.20;99.90
3784;DHT22;1907;49.238;9.262;2022-09-17T20:16:36;9.30;99.90
3784;DHT22;1907;49.238;9.262;2022-09-17T20:19:02;9.30;99.90
3784;DHT22;1907;49.238;9.262;2022-09-17T20:21:31;9.30;99.90
3784;DHT22;1907;49.238;9.262;2022-09-17T20:23:57;9.40;99.90